Time;durP1;ratioP1;P1;durP2;ratioP2;P2;SDS_P1;SDS_P2;PMS_P1;PMS_P2;Temp;Humidity;BMP_temperature;BMP_pressure;BME280_temperature;BME280_humidity;BME280_pressure;Samples;Min_cycle;Max_cycle;Signal;HPM_P1;HPM_P2
2023/09/13 00:01:09;;;;;;;8.33;7.50;;;22.30;1.00;;;;;;5072078;28;20541;-74
2023/09/13 00:03:36;;;;;;;10.07;9.00;;;22.30;1.00;;;;;;5078080;28;20549;-74
2023/09/13 00:06:03;;;;;;;9.30;8.40;;;22.30;1.00;;;;;;5070618;28;20458;-75
2023/09/13 00:08:30;;;;;;;10.30;8.80;;;22.20;1.00;;;;;;5074097;28;20559;-75
2023/09/13 00:11:03;;;;;;;9.07;8.00;;;22.10;1.00;;;;;;5071263;28;20550;-75
2023/09/13 00:13:32;;;;;;;8.23;7.60;;;22.10;1.00;;;;;;5070083;28;20565;-74
2023/09/13 00:15:58;;;;;;;8.93;8.13;;;22.10;1.00;;;;;;5073028;28;20503;-72
2023/09/13 00:18:25;;;;;;;8.90;8.20;;;22.10;1.00;;;;;;5067379;28;20477;-72
2023/09/13 00:20:53;;;;;;;9.77;8.87;;;22.10;1.00;;;;;;5071708;28;20543;-73
2023/09/13 00:23:20;;;;;;;8.50;7.70;;;22.00;1.00;;;;;;5079961;27;20522;-72
2023/09/13 00:25:47;;;;;;;9.83;8.93;;;22.00;1.00;;;;;;5078828;28;20459;-72
2023/09/13 00:28:16;;;;;;;9.73;8.50;;;22.00;1.00;;;;;;5077566;28;20460;-72
2023/09/13 00:30:43;;;;;;;8.83;8.03;;;22.00;1.00;;;;;;5081108;28;20961;-76
2023/09/13 00:33:10;;;;;;;12.03;8.33;;;22.00;1.00;;;;;;5081788;28;20543;-78
2023/09/13 00:35:37;;;;;;;9.53;8.50;;;21.90;1.00;;;;;;5084096;28;20545;-77
2023/09/13 00:38:04;;;;;;;9.90;8.90;;;22.00;1.00;;;;;;5087737;28;20442;-76
2023/09/13 00:40:31;;;;;;;9.33;8.50;;;22.00;1.00;;;;;;5086694;28;20568;-77
2023/09/13 00:42:59;;;;;;;9.37;8.57;;;22.00;1.00;;;;;;5075954;28;20466;-77
2023/09/13 00:45:30;;;;;;;8.37;7.73;;;22.00;1.00;;;;;;5072589;28;20485;-75
2023/09/13 00:47:57;;;;;;;8.50;7.87;;;22.00;1.00;;;;;;5080035;28;21041;-75
2023/09/13 00:50:25;;;;;;;9.60;8.43;;;22.00;1.00;;;;;;5075569;28;20862;-75
2023/09/13 00:52:52;;;;;;;8.73;7.93;;;22.00;1.00;;;;;;5074113;28;21975;-75
2023/09/13 00:55:20;;;;;;;8.40;7.70;;;22.00;1.00;;;;;;5075413;28;20476;-75
2023/09/13 00:57:49;;;;;;;17.03;8.63;;;22.00;1.00;;;;;;5071421;28;21003;-75
2023/09/13 01:00:18;;;;;;;8.57;7.87;;;22.00;1.00;;;;;;5079883;28;20466;-76
2023/09/13 01:02:47;;;;;;;9.43;8.03;;;21.90;1.00;;;;;;5079004;28;20466;-76
2023/09/13 01:05:15;;;;;;;8.60;7.77;;;21.90;1.00;;;;;;5072424;28;20569;-74
2023/09/13 01:07:43;;;;;;;8.50;7.70;;;21.90;1.00;;;;;;5075793;28;20479;-76
2023/09/13 01:10:11;;;;;;;8.07;7.37;;;21.90;1.00;;;;;;5074214;28;20479;-76
2023/09/13 01:12:38;;;;;;;8.30;7.70;;;21.90;1.00;;;;;;5073496;28;20598;-76
2023/09/13 01:15:07;;;;;;;8.10;7.30;;;21.90;1.00;;;;;;5069425;28;20505;-76
2023/09/13 01:17:40;;;;;;;8.70;7.90;;;21.80;1.00;;;;;;5074995;28;20483;-76
2023/09/13 01:20:15;;;;;;;8.63;7.57;;;21.80;1.00;;;;;;5075517;28;20464;-76
2023/09/13 01:23:12;;;;;;;7.77;7.13;;;21.80;1.00;;;;;;5078587;28;20548;-76
2023/09/13 01:26:14;;;;;;;8.13;7.33;;;21.70;1.00;;;;;;5083505;28;20474;-78
2023/09/13 01:28:47;;;;;;;8.50;6.90;;;21.70;1.00;;;;;;5082977;28;20534;-76
2023/09/13 01:31:17;;;;;;;8.13;7.53;;;21.80;1.00;;;;;;5082106;28;20480;-77
2023/09/13 01:33:45;;;;;;;13.70;7.90;;;21.80;1.00;;;;;;5085462;28;20461;-76
2023/09/13 01:36:12;;;;;;;8.07;7.27;;;21.80;1.00;;;;;;5082061;28;20935;-76
2023/09/13 01:38:39;;;;;;;7.20;6.50;;;21.80;1.00;;;;;;5081600;28;20449;-75
2023/09/13 01:41:13;;;;;;;7.10;6.53;;;21.80;1.00;;;;;;5080404;28;20505;-77
2023/09/13 01:43:41;;;;;;;7.87;6.90;;;21.80;1.00;;;;;;5073609;28;20618;-75
2023/09/13 01:46:11;;;;;;;7.33;6.50;;;21.80;1.00;;;;;;5072070;28;20477;-75
2023/09/13 01:48:39;;;;;;;7.90;7.00;;;21.80;1.00;;;;;;5072763;28;20464;-77
2023/09/13 01:51:07;;;;;;;6.77;6.07;;;21.90;1.00;;;;;;5078770;28;20516;-74
2023/09/13 01:53:42;;;;;;;7.27;6.20;;;21.90;1.00;;;;;;5072352;28;20425;-74
2023/09/13 01:56:09;;;;;;;7.73;6.97;;;22.00;1.00;;;;;;5071500;28;20473;-76
2023/09/13 01:58:36;;;;;;;6.80;6.10;;;22.00;1.00;;;;;;5078056;28;20450;-75
2023/09/13 02:01:03;;;;;;;8.03;6.40;;;22.00;1.00;;;;;;5074430;28;20681;-75
2023/09/13 02:03:31;;;;;;;19.87;8.73;;;21.90;1.00;;;;;;5077698;28;20458;-74
2023/09/13 02:05:59;;;;;;;18.37;8.47;;;21.70;1.00;;;;;;5080519;28;20505;-73
2023/09/13 02:08:26;;;;;;;15.20;8.30;;;21.70;1.00;;;;;;5074809;28;20457;-76
2023/09/13 02:10:55;;;;;;;18.43;9.63;;;21.60;1.00;;;;;;5078528;28;20989;-77
2023/09/13 02:13:21;;;;;;;12.33;9.40;;;21.10;1.00;;;;;;5076917;28;20595;-75
2023/09/13 02:15:48;;;;;;;15.43;9.20;;;20.30;1.00;;;;;;5076312;28;21007;-77
2023/09/13 02:18:15;;;;;;;18.53;11.43;;;19.80;1.00;;;;;;5074226;28;20468;-73
2023/09/13 02:20:44;;;;;;;12.90;10.83;;;19.50;1.00;;;;;;5073607;28;20538;-75
2023/09/13 02:23:11;;;;;;;11.27;10.20;;;19.40;1.00;;;;;;5078368;28;20560;-75
2023/09/13 02:25:40;;;;;;;19.10;11.93;;;19.30;1.00;;;;;;5090207;28;21229;-75
2023/09/13 02:28:07;;;;;;;15.00;12.90;;;19.20;1.00;;;;;;5083794;28;20456;-74
2023/09/13 02:30:35;;;;;;;14.07;12.40;;;19.30;1.00;;;;;;5083911;28;20662;-75
2023/09/13 02:33:03;;;;;;;14.77;13.27;;;19.30;1.00;;;;;;5081876;28;20610;-75
2023/09/13 02:35:30;;;;;;;14.60;13.10;;;19.30;1.00;;;;;;5083029;28;20542;-75
2023/09/13 02:37:58;;;;;;;16.17;12.80;;;19.40;1.00;;;;;;5084265;28;20560;-77
2023/09/13 02:40:26;;;;;;;13.07;11.73;;;19.40;1.00;;;;;;5080052;28;20507;-75
2023/09/13 02:42:53;;;;;;;14.60;12.67;;;19.40;1.00;;;;;;5055749;28;20508;-76
2023/09/13 02:45:20;;;;;;;14.70;13.30;;;19.40;1.00;;;;;;5078804;28;20972;-76
2023/09/13 02:47:47;;;;;;;14.20;12.90;;;19.30;1.00;;;;;;5084067;28;20934;-73
2023/09/13 02:50:13;;;;;;;16.07;14.40;;;19.40;1.00;;;;;;5080554;28;20468;-76
2023/09/13 02:52:41;;;;;;;15.43;13.83;;;19.30;1.00;;;;;;5085752;28;20546;-76
2023/09/13 02:55:10;;;;;;;15.00;13.50;;;19.40;1.00;;;;;;5083784;28;22228;-76
2023/09/13 02:57:37;;;;;;;16.37;14.70;;;19.40;1.00;;;;;;5085328;28;20555;-76
2023/09/13 03:00:05;;;;;;;16.13;14.50;;;19.40;1.00;;;;;;5079108;28;20854;-75
2023/09/13 03:02:32;;;;;;;16.30;14.80;;;19.40;1.00;;;;;;5076439;28;20965;-75
2023/09/13 03:05:00;;;;;;;16.37;14.67;;;19.40;1.00;;;;;;5083075;28;20573;-76
2023/09/13 03:07:27;;;;;;;16.20;14.60;;;19.40;1.00;;;;;;5071640;28;20551;-75
2023/09/13 03:09:57;;;;;;;16.03;14.40;;;19.40;1.00;;;;;;5063060;28;20619;-76
2023/09/13 03:12:25;;;;;;;17.23;14.20;;;19.30;1.00;;;;;;5072865;28;20462;-75
2023/09/13 03:14:52;;;;;;;17.57;15.73;;;19.30;1.00;;;;;;5075985;28;20998;-75
2023/09/13 03:17:19;;;;;;;16.27;14.73;;;19.20;1.00;;;;;;5074045;28;20476;-75
2023/09/13 03:19:46;;;;;;;16.00;14.40;;;19.10;1.00;;;;;;5075304;28;20497;-75
2023/09/13 03:22:13;;;;;;;17.37;15.70;;;19.20;1.00;;;;;;5073976;28;20468;-76
2023/09/13 03:24:41;;;;;;;16.90;15.20;;;19.10;1.00;;;;;;5084368;28;20996;-74
2023/09/13 03:27:09;;;;;;;16.13;14.47;;;19.10;1.00;;;;;;5083007;28;20555;-73
2023/09/13 03:29:38;;;;;;;17.23;14.70;;;19.10;1.00;;;;;;5078620;28;20445;-73
2023/09/13 03:32:06;;;;;;;16.07;14.37;;;19.10;1.00;;;;;;5074112;28;20547;-75
2023/09/13 03:34:35;;;;;;;15.67;14.10;;;19.10;1.00;;;;;;5075263;28;20472;-74
2023/09/13 03:37:02;;;;;;;16.13;14.53;;;19.10;1.00;;;;;;5075990;28;20448;-75
2023/09/13 03:39:29;;;;;;;16.63;14.97;;;19.10;1.00;;;;;;5068142;28;20558;-75
2023/09/13 03:41:57;;;;;;;17.60;15.90;;;19.10;1.00;;;;;;5075048;28;20966;-75
2023/09/13 03:44:24;;;;;;;18.97;15.20;;;19.10;1.00;;;;;;5074137;28;20674;-76
2023/09/13 03:46:52;;;;;;;17.27;15.47;;;19.10;1.00;;;;;;5057906;28;21050;-74
2023/09/13 03:49:19;;;;;;;18.37;14.20;;;19.10;1.00;;;;;;5074898;28;20434;-77
2023/09/13 03:51:46;;;;;;;18.70;16.77;;;19.10;1.00;;;;;;5080298;28;20449;-74
2023/09/13 03:54:14;;;;;;;18.13;16.20;;;19.00;1.00;;;;;;5085610;28;20480;-76
2023/09/13 03:56:41;;;;;;;18.43;16.57;;;18.90;1.00;;;;;;5082118;28;20569;-74
2023/09/13 03:59:08;;;;;;;18.60;16.10;;;19.00;1.00;;;;;;5066277;28;20487;-75
2023/09/13 04:01:35;;;;;;;16.53;14.83;;;18.90;1.00;;;;;;5071540;28;20888;-72
2023/09/13 04:04:04;;;;;;;17.83;15.90;;;18.90;1.00;;;;;;5074186;28;20499;-76
2023/09/13 04:06:31;;;;;;;17.73;15.97;;;18.90;1.00;;;;;;5083466;28;20456;-76
2023/09/13 04:08:59;;;;;;;18.60;15.87;;;18.90;1.00;;;;;;5086097;28;20482;-77
2023/09/13 04:11:28;;;;;;;17.57;15.80;;;18.90;1.00;;;;;;5071288;28;20513;-78
2023/09/13 04:13:56;;;;;;;21.77;17.30;;;18.90;1.00;;;;;;5076706;28;20474;-78
2023/09/13 04:16:23;;;;;;;18.10;16.10;;;18.90;1.00;;;;;;5086226;28;20464;-76
2023/09/13 04:18:50;;;;;;;18.30;15.83;;;18.80;1.00;;;;;;5082616;28;20550;-77
2023/09/13 04:21:18;;;;;;;20.47;18.57;;;18.80;1.00;;;;;;5082910;28;20468;-76
2023/09/13 04:23:45;;;;;;;20.00;17.83;;;18.80;1.00;;;;;;5083893;28;20928;-78
2023/09/13 04:26:13;;;;;;;18.57;16.60;;;18.80;1.00;;;;;;5080208;28;20462;-78
2023/09/13 04:28:40;;;;;;;17.80;15.93;;;18.80;1.00;;;;;;5082812;28;20483;-71
2023/09/13 04:31:07;;;;;;;20.53;17.60;;;18.80;1.00;;;;;;5070780;28;20539;-77
2023/09/13 04:33:50;;;;;;;23.10;18.70;;;18.80;1.00;;;;;;5077550;28;20658;-79
2023/09/13 04:36:19;;;;;;;19.30;17.50;;;18.80;1.00;;;;;;5083390;28;20480;-77
2023/09/13 04:38:48;;;;;;;20.10;18.00;;;18.80;1.00;;;;;;5082194;28;20480;-76
2023/09/13 04:41:16;;;;;;;20.40;17.57;;;18.70;1.00;;;;;;5081122;28;20619;-73
2023/09/13 04:43:43;;;;;;;17.93;16.13;;;18.70;1.00;;;;;;5081614;28;20699;-75
2023/09/13 04:46:10;;;;;;;18.70;17.00;;;18.70;1.00;;;;;;5081234;28;20457;-77
2023/09/13 04:48:37;;;;;;;19.27;17.47;;;18.70;1.00;;;;;;5074150;28;20464;-77
2023/09/13 04:51:04;;;;;;;18.27;16.57;;;18.60;1.00;;;;;;5078730;28;20484;-75
2023/09/13 04:53:34;;;;;;;21.20;18.40;;;18.60;1.00;;;;;;5079027;28;21309;-75
2023/09/13 04:56:01;;;;;;;22.73;17.90;;;18.60;1.00;;;;;;5083638;28;20483;-75
2023/09/13 04:58:29;;;;;;;22.53;20.27;;;18.60;1.00;;;;;;5083131;28;20461;-76
2023/09/13 05:00:56;;;;;;;21.53;19.27;;;18.60;1.00;;;;;;5075820;28;20553;-77
2023/09/13 05:03:23;;;;;;;20.00;17.90;;;18.60;1.00;;;;;;5079037;28;20956;-75
2023/09/13 05:05:49;;;;;;;17.83;16.30;;;18.60;1.00;;;;;;5082976;28;20503;-77
2023/09/13 05:08:16;;;;;;;16.93;15.13;;;18.60;1.00;;;;;;5073521;28;20571;-78
2023/09/13 05:10:46;;;;;;;17.20;15.67;;;18.50;1.00;;;;;;5079853;28;20929;-70
2023/09/13 05:13:13;;;;;;;18.90;17.13;;;18.50;1.00;;;;;;5077774;28;20496;-69
2023/09/13 05:15:44;;;;;;;17.97;16.27;;;18.50;1.00;;;;;;5078109;28;20522;-71
2023/09/13 05:18:11;;;;;;;19.80;17.90;;;18.50;1.00;;;;;;5079023;28;20452;-70
2023/09/13 05:20:38;;;;;;;20.90;18.90;;;18.50;1.00;;;;;;5081353;28;20541;-69
2023/09/13 05:23:05;;;;;;;19.93;18.10;;;18.50;1.00;;;;;;5077367;28;20494;-73
2023/09/13 05:25:33;;;;;;;18.83;17.10;;;18.60;1.00;;;;;;5084784;28;20539;-72
2023/09/13 05:28:02;;;;;;;18.90;17.07;;;18.60;1.00;;;;;;5079991;28;20468;-68
2023/09/13 05:30:31;;;;;;;19.13;17.30;;;18.50;1.00;;;;;;5078383;28;20455;-71
2023/09/13 05:32:58;;;;;;;21.10;19.20;;;18.50;1.00;;;;;;5081343;28;20473;-70
2023/09/13 05:35:25;;;;;;;19.93;18.13;;;18.50;1.00;;;;;;5081756;28;20444;-69
2023/09/13 05:37:52;;;;;;;20.87;19.07;;;18.50;1.00;;;;;;5081212;28;20465;-71
2023/09/13 05:40:19;;;;;;;22.23;20.07;;;18.50;1.00;;;;;;5079215;28;20530;-71
2023/09/13 05:42:46;;;;;;;21.50;19.63;;;18.60;1.00;;;;;;5079545;28;20479;-70
2023/09/13 05:45:14;;;;;;;22.53;20.30;;;18.60;1.00;;;;;;5078319;28;20520;-69
2023/09/13 05:47:41;;;;;;;24.23;21.33;;;18.60;1.00;;;;;;5080167;28;20526;-72
2023/09/13 05:50:08;;;;;;;25.33;22.73;;;18.70;1.00;;;;;;5086307;28;20461;-70
2023/09/13 05:52:37;;;;;;;24.60;22.27;;;18.70;1.00;;;;;;5084968;28;20991;-72
2023/09/13 05:55:04;;;;;;;26.33;23.53;;;18.80;1.00;;;;;;5083133;28;20548;-70
2023/09/13 05:57:31;;;;;;;26.50;24.00;;;18.70;1.00;;;;;;5085939;28;20480;-70
2023/09/13 05:59:58;;;;;;;24.47;21.97;;;18.70;1.00;;;;;;5083681;28;20498;-75
2023/09/13 06:02:26;;;;;;;27.50;24.90;;;18.70;1.00;;;;;;5082097;28;20825;-70
2023/09/13 06:04:53;;;;;;;26.27;23.80;;;18.80;1.00;;;;;;5088508;28;20526;-71
2023/09/13 06:07:20;;;;;;;27.03;24.23;;;18.80;1.00;;;;;;5082784;28;20559;-73
2023/09/13 06:09:47;;;;;;;25.37;23.03;;;18.70;1.00;;;;;;5085014;28;20592;-73
2023/09/13 06:12:16;;;;;;;25.90;23.57;;;18.70;1.00;;;;;;5088806;28;20468;-70
2023/09/13 06:14:43;;;;;;;26.73;24.23;;;18.80;1.00;;;;;;5084525;28;20475;-70
2023/09/13 06:17:10;;;;;;;26.20;23.60;;;18.90;1.00;;;;;;5053497;28;20500;-72
2023/09/13 06:19:39;;;;;;;27.37;24.90;;;18.90;1.00;;;;;;5082259;28;20444;-69
2023/09/13 06:22:06;;;;;;;26.63;24.23;;;19.00;1.00;;;;;;5079935;28;20467;-70
2023/09/13 06:24:33;;;;;;;27.37;24.77;;;19.10;1.00;;;;;;5085707;28;21060;-69
2023/09/13 06:27:00;;;;;;;27.20;24.67;;;19.10;1.00;;;;;;5070820;28;20611;-75
2023/09/13 06:29:26;;;;;;;25.10;22.73;;;19.10;1.00;;;;;;5084600;28;20545;-70
2023/09/13 06:31:55;;;;;;;25.50;22.90;;;19.10;1.00;;;;;;5084412;28;21060;-70
2023/09/13 06:34:22;;;;;;;24.70;22.43;;;19.10;1.00;;;;;;5083369;28;20461;-69
2023/09/13 06:36:50;;;;;;;25.97;23.30;;;19.10;1.00;;;;;;5082091;28;20463;-70
2023/09/13 06:39:19;;;;;;;25.40;23.20;;;19.10;1.00;;;;;;5085515;28;20998;-70
2023/09/13 06:41:46;;;;;;;23.27;21.10;;;19.10;1.00;;;;;;5087392;28;20472;-70
2023/09/13 06:44:13;;;;;;;22.57;20.43;;;19.20;1.00;;;;;;5083520;28;20461;-72
2023/09/13 06:46:41;;;;;;;22.70;20.67;;;19.20;1.00;;;;;;5084748;28;20463;-70
2023/09/13 06:49:08;;;;;;;19.60;17.60;;;19.20;1.00;;;;;;5085680;28;20480;-71
2023/09/13 06:51:35;;;;;;;18.93;17.33;;;19.20;1.00;;;;;;5086206;28;20553;-71
2023/09/13 06:54:03;;;;;;;19.37;17.37;;;19.20;1.00;;;;;;5087435;28;20580;-71
2023/09/13 06:56:31;;;;;;;18.57;16.97;;;19.30;1.00;;;;;;5086257;28;20541;-70
2023/09/13 06:58:57;;;;;;;19.43;17.63;;;19.30;1.00;;;;;;5082794;28;20540;-70
2023/09/13 07:01:24;;;;;;;18.13;16.43;;;19.30;1.00;;;;;;5080861;28;21104;-71
2023/09/13 07:03:51;;;;;;;18.10;16.30;;;19.40;1.00;;;;;;5082599;28;20477;-73
2023/09/13 07:06:18;;;;;;;17.57;16.00;;;19.50;1.00;;;;;;5082480;28;20632;-71
2023/09/13 07:08:45;;;;;;;17.37;15.63;;;19.60;1.00;;;;;;5078532;28;20462;-72
2023/09/13 07:11:13;;;;;;;13.70;12.50;;;19.70;1.00;;;;;;5082243;28;20529;-70
2023/09/13 07:13:40;;;;;;;14.30;13.00;;;19.80;1.00;;;;;;5082128;28;20476;-71
2023/09/13 07:16:07;;;;;;;13.40;12.10;;;19.80;1.00;;;;;;5078102;28;20980;-71
2023/09/13 07:18:34;;;;;;;12.00;11.00;;;20.00;1.00;;;;;;5084111;28;20489;-72
2023/09/13 07:21:01;;;;;;;13.27;12.07;;;20.10;1.00;;;;;;5083600;28;20560;-71
2023/09/13 07:23:28;;;;;;;11.37;10.37;;;20.30;1.00;;;;;;5080246;28;20541;-72
2023/09/13 07:25:55;;;;;;;11.80;10.60;;;20.30;1.00;;;;;;5082725;28;20552;-70
2023/09/13 07:28:23;;;;;;;15.53;12.37;;;20.40;1.00;;;;;;5083693;28;20464;-71
2023/09/13 07:30:50;;;;;;;10.10;9.10;;;20.60;1.00;;;;;;5082458;28;20474;-75
2023/09/13 07:33:17;;;;;;;14.97;9.27;;;20.80;1.00;;;;;;5081963;28;20467;-76
2023/09/13 07:35:45;;;;;;;15.13;10.83;;;20.90;1.00;;;;;;5083373;28;21065;-75
2023/09/13 07:38:12;;;;;;;9.10;8.17;;;21.20;1.00;;;;;;5080478;28;20526;-75
2023/09/13 07:40:40;;;;;;;9.17;8.07;;;21.10;1.00;;;;;;5082491;28;20579;-76
2023/09/13 07:43:07;;;;;;;9.30;8.50;;;21.10;1.00;;;;;;5080537;28;20491;-76
2023/09/13 07:45:36;;;;;;;9.57;8.67;;;21.10;1.00;;;;;;5084620;28;20514;-75
2023/09/13 07:48:03;;;;;;;9.40;8.50;;;21.10;1.00;;;;;;5083177;28;20453;-75
2023/09/13 07:50:32;;;;;;;10.47;9.37;;;21.30;1.00;;;;;;5085994;28;20456;-73
2023/09/13 07:52:59;;;;;;;10.20;8.43;;;21.50;1.00;;;;;;5085431;28;20465;-74
2023/09/13 07:55:26;;;;;;;9.47;8.57;;;21.60;1.00;;;;;;5085286;28;20461;-76
2023/09/13 07:57:53;;;;;;;8.60;7.90;;;21.60;1.00;;;;;;5081863;28;20471;-75
2023/09/13 08:00:20;;;;;;;10.27;9.37;;;21.50;1.00;;;;;;5080102;28;20472;-76
2023/09/13 08:02:51;;;;;;;9.73;8.80;;;21.40;1.00;;;;;;5086841;28;20460;-75
2023/09/13 08:05:19;;;;;;;9.50;8.57;;;21.20;1.00;;;;;;5083919;28;20463;-73
2023/09/13 08:07:46;;;;;;;8.27;7.57;;;21.00;1.00;;;;;;5081861;28;21305;-76
2023/09/13 08:10:13;;;;;;;7.50;6.60;;;20.90;1.00;;;;;;5082517;28;20560;-76
2023/09/13 08:12:41;;;;;;;6.93;6.27;;;20.90;1.00;;;;;;5081535;28;20448;-73
2023/09/13 08:15:09;;;;;;;6.77;6.17;;;20.90;1.00;;;;;;5080278;28;20466;-76
2023/09/13 08:17:36;;;;;;;6.63;6.13;;;21.10;1.00;;;;;;5077714;28;20456;-75
2023/09/13 08:20:07;;;;;;;6.67;6.17;;;21.30;1.00;;;;;;5082317;28;20486;-74
2023/09/13 08:22:34;;;;;;;8.40;6.60;;;21.60;1.00;;;;;;5080930;28;20497;-75
2023/09/13 08:25:00;;;;;;;7.83;7.10;;;21.80;1.00;;;;;;5084730;28;20602;-75
2023/09/13 08:27:28;;;;;;;7.73;7.13;;;21.90;1.00;;;;;;5081453;28;20466;-74
2023/09/13 08:29:55;;;;;;;6.70;6.10;;;21.70;1.00;;;;;;5082689;28;20563;-73
2023/09/13 08:32:22;;;;;;;7.20;6.60;;;21.60;1.00;;;;;;5082473;28;20483;-75
2023/09/13 08:34:49;;;;;;;7.20;6.60;;;21.60;1.00;;;;;;5081214;28;20562;-74
2023/09/13 08:37:18;;;;;;;9.50;6.70;;;21.70;1.00;;;;;;5081342;28;20513;-75
2023/09/13 08:39:45;;;;;;;8.40;6.90;;;21.70;1.00;;;;;;5083624;28;20483;-76
2023/09/13 08:42:12;;;;;;;7.67;7.07;;;21.80;1.00;;;;;;5081815;28;20541;-77
2023/09/13 08:44:40;;;;;;;6.63;6.13;;;21.80;1.00;;;;;;5080479;28;20473;-74
2023/09/13 08:47:10;;;;;;;6.83;6.23;;;21.70;1.00;;;;;;5081440;28;20546;-74
2023/09/13 08:49:37;;;;;;;6.50;6.00;;;21.50;1.00;;;;;;5085599;28;20537;-76
2023/09/13 08:52:06;;;;;;;6.43;5.93;;;21.50;1.00;;;;;;5083538;28;20499;-74
2023/09/13 08:54:37;;;;;;;6.93;6.20;;;21.50;1.00;;;;;;5087413;28;21033;-74
2023/09/13 08:57:04;;;;;;;6.70;6.10;;;21.70;1.00;;;;;;5084336;28;20429;-75
2023/09/13 08:59:32;;;;;;;8.33;6.67;;;22.00;1.00;;;;;;5088723;28;20469;-75
2023/09/13 09:02:01;;;;;;;6.80;6.20;;;22.20;1.00;;;;;;5082006;28;21123;-75
2023/09/13 09:04:28;;;;;;;5.87;5.37;;;22.50;1.00;;;;;;5083242;28;20540;-75
2023/09/13 09:06:55;;;;;;;6.20;5.60;;;22.60;1.00;;;;;;5086932;28;20917;-75
2023/09/13 09:09:28;;;;;;;5.70;5.20;;;22.50;1.00;;;;;;5081992;28;20470;-74
2023/09/13 09:12:00;;;;;;;5.00;4.50;;;22.50;1.00;;;;;;5083121;28;20447;-74
2023/09/13 09:14:32;;;;;;;4.50;4.10;;;22.60;1.00;;;;;;5085764;28;20538;-76
2023/09/13 09:17:00;;;;;;;4.30;3.90;;;22.50;1.00;;;;;;5084892;28;20465;-74
2023/09/13 09:19:29;;;;;;;4.40;4.00;;;22.60;1.00;;;;;;5087740;28;20920;-76
2023/09/13 09:21:57;;;;;;;4.40;3.63;;;22.40;1.00;;;;;;5086826;28;20936;-76
2023/09/13 09:24:25;;;;;;;4.10;3.70;;;22.40;1.00;;;;;;5085364;28;21012;-76
2023/09/13 09:26:56;;;;;;;4.40;4.10;;;22.20;1.00;;;;;;5088112;28;20995;-75
2023/09/13 09:29:34;;;;;;;4.70;3.90;;;22.20;1.00;;;;;;5084668;28;20566;-77
2023/09/13 09:32:01;;;;;;;4.10;3.70;;;22.20;1.00;;;;;;5086507;28;21061;-75
2023/09/13 09:34:31;;;;;;;4.27;3.87;;;22.20;1.00;;;;;;5086766;28;20449;-75
2023/09/13 09:37:04;;;;;;;5.20;4.43;;;22.00;1.00;;;;;;5075234;28;20625;-75
2023/09/13 09:39:31;;;;;;;4.00;3.40;;;21.90;1.00;;;;;;5074153;28;20468;-75
2023/09/13 09:42:00;;;;;;;4.57;4.00;;;21.80;1.00;;;;;;5086500;28;20464;-76
2023/09/13 09:44:29;;;;;;;4.40;4.00;;;21.80;1.00;;;;;;5084596;28;20483;-73
2023/09/13 09:46:57;;;;;;;4.53;3.50;;;21.80;1.00;;;;;;5083923;28;20536;-71
2023/09/13 09:49:25;;;;;;;3.60;3.30;;;21.80;1.00;;;;;;5087194;28;21359;-73
2023/09/13 09:51:52;;;;;;;4.03;3.70;;;21.70;1.00;;;;;;5085231;28;20828;-72
2023/09/13 09:54:19;;;;;;;3.83;3.53;;;21.70;1.00;;;;;;5084370;28;20534;-71
2023/09/13 09:56:46;;;;;;;4.73;3.80;;;21.90;1.00;;;;;;5085501;28;20462;-71
2023/09/13 09:59:15;;;;;;;3.70;3.40;;;22.10;1.00;;;;;;5080135;28;20596;-72
2023/09/13 10:01:45;;;;;;;4.00;3.57;;;22.20;1.00;;;;;;5083271;28;20515;-72
2023/09/13 10:04:13;;;;;;;4.00;3.60;;;22.20;1.00;;;;;;5084753;28;20468;-72
2023/09/13 10:06:56;;;;;;;4.20;3.90;;;22.40;1.00;;;;;;5082986;28;20465;-72
2023/09/13 10:09:23;;;;;;;3.93;3.63;;;22.40;1.00;;;;;;5084899;28;20478;-71
2023/09/13 10:11:57;;;;;;;7.30;3.90;;;22.40;1.00;;;;;;5085197;28;20444;-72
2023/09/13 10:14:28;;;;;;;4.80;3.83;;;22.50;1.00;;;;;;5083428;28;21073;-72
2023/09/13 10:16:56;;;;;;;4.93;3.90;;;22.60;1.00;;;;;;5083550;28;20488;-72
2023/09/13 10:19:33;;;;;;;4.30;3.90;;;22.60;1.00;;;;;;5086060;28;20460;-72
2023/09/13 10:22:01;;;;;;;4.43;4.03;;;22.70;1.00;;;;;;5084410;28;20576;-72
2023/09/13 10:24:34;;;;;;;5.30;3.73;;;22.80;1.00;;;;;;5085027;28;22501;-72
2023/09/13 10:27:07;;;;;;;3.83;3.53;;;23.10;1.00;;;;;;5081748;28;20495;-73
2023/09/13 10:29:41;;;;;;;4.40;3.93;;;23.30;1.00;;;;;;5083551;28;20923;-72
2023/09/13 10:32:12;;;;;;;4.27;3.77;;;23.40;1.00;;;;;;5084904;28;20550;-72
2023/09/13 10:34:47;;;;;;;4.53;3.73;;;23.30;1.00;;;;;;5081139;28;20473;-72
2023/09/13 10:37:25;;;;;;;4.37;3.87;;;23.20;1.00;;;;;;5082150;28;20529;-71
2023/09/13 10:39:55;;;;;;;5.40;4.20;;;23.30;1.00;;;;;;5084910;28;20482;-73
2023/09/13 10:42:23;;;;;;;3.60;3.30;;;23.40;1.00;;;;;;5079547;28;20455;-72
2023/09/13 10:44:54;;;;;;;3.90;3.60;;;23.60;1.00;;;;;;5085774;28;20535;-72
2023/09/13 10:47:21;;;;;;;4.07;3.77;;;24.30;1.00;;;;;;5081869;28;20783;-72
2023/09/13 10:49:49;;;;;;;4.23;3.47;;;25.00;1.00;;;;;;5084842;28;20498;-72
2023/09/13 10:52:18;;;;;;;3.33;3.03;;;24.80;1.00;;;;;;5082525;28;20463;-72
2023/09/13 10:54:46;;;;;;;3.70;3.30;;;24.60;1.00;;;;;;5083149;28;20537;-74
2023/09/13 10:57:16;;;;;;;4.10;3.70;;;24.30;1.00;;;;;;5085823;28;20944;-72
2023/09/13 10:59:44;;;;;;;4.00;3.70;;;24.20;1.00;;;;;;5081608;28;20566;-72
2023/09/13 11:02:13;;;;;;;3.53;3.33;;;24.10;1.00;;;;;;5079160;28;20545;-71
2023/09/13 11:04:40;;;;;;;3.50;3.30;;;24.20;1.00;;;;;;5085001;28;20461;-73
2023/09/13 11:07:07;;;;;;;3.90;3.60;;;24.30;1.00;;;;;;5083139;28;20544;-72
2023/09/13 11:09:34;;;;;;;3.80;3.20;;;25.10;1.00;;;;;;5082299;28;20586;-71
2023/09/13 11:12:03;;;;;;;4.43;3.47;;;26.40;1.00;;;;;;5081931;28;20474;-72
2023/09/13 11:14:31;;;;;;;3.80;3.40;;;26.60;1.00;;;;;;5081660;28;20980;-71
2023/09/13 11:17:34;;;;;;;3.30;3.10;;;26.30;1.00;;;;;;5084511;28;20462;-71
2023/09/13 11:20:22;;;;;;;3.13;2.93;;;26.50;1.00;;;;;;5082548;28;20604;-71
2023/09/13 11:23:01;;;;;;;3.63;2.90;;;28.40;1.00;;;;;;5081551;28;20933;-72
2023/09/13 11:25:35;;;;;;;3.30;3.00;;;28.20;1.00;;;;;;5083117;28;20540;-72
2023/09/13 11:28:04;;;;;;;3.50;3.20;;;27.50;1.00;;;;;;5083773;28;20553;-71
2023/09/13 11:30:47;;;;;;;3.13;2.90;;;26.50;1.00;;;;;;5082209;28;21038;-73
2023/09/13 11:33:16;;;;;;;3.20;3.00;;;25.80;1.00;;;;;;5078913;28;20485;-70
2023/09/13 11:35:44;;;;;;;3.00;2.80;;;25.10;1.00;;;;;;5084791;28;20548;-70
2023/09/13 11:38:12;;;;;;;3.37;3.07;;;24.60;1.00;;;;;;5081309;28;20469;-73
2023/09/13 11:40:46;;;;;;;3.57;3.27;;;24.10;1.00;;;;;;5073418;28;20605;-71
2023/09/13 11:43:13;;;;;;;4.30;2.70;;;24.30;1.00;;;;;;5080450;28;20525;-71
2023/09/13 11:45:40;;;;;;;2.53;2.33;;;26.50;1.00;;;;;;5082758;28;20481;-71
2023/09/13 11:48:08;;;;;;;2.57;2.13;;;28.00;1.00;;;;;;5080634;28;20464;-69
2023/09/13 11:50:45;;;;;;;3.60;2.60;;;27.60;1.00;;;;;;5086472;28;20471;-69
2023/09/13 11:53:16;;;;;;;2.73;2.53;;;26.40;1.00;;;;;;5083984;28;20977;-69
2023/09/13 11:55:46;;;;;;;3.03;2.80;;;25.50;1.00;;;;;;5081787;28;20514;-70
2023/09/13 11:58:17;;;;;;;3.67;3.20;;;24.60;1.00;;;;;;5078835;28;20468;-74
2023/09/13 12:00:44;;;;;;;5.53;4.57;;;23.70;1.00;;;;;;5082185;28;20912;-71
2023/09/13 12:03:17;;;;;;;4.17;3.77;;;22.90;1.00;;;;;;5071981;28;21791;-72
2023/09/13 12:05:46;;;;;;;3.97;3.60;;;22.30;1.00;;;;;;5084236;28;20469;-71
2023/09/13 12:08:24;;;;;;;5.50;5.00;;;21.70;1.00;;;;;;5067465;28;20527;-70
2023/09/13 12:10:51;;;;;;;6.07;4.20;;;21.50;1.00;;;;;;5081933;28;20553;-77
2023/09/13 12:13:19;;;;;;;4.43;4.00;;;21.30;1.00;;;;;;5083307;28;20453;-76
2023/09/13 12:16:04;;;;;;;4.40;3.77;;;21.30;1.00;;;;;;5081515;28;20553;-75
2023/09/13 12:18:32;;;;;;;4.97;4.47;;;21.10;1.00;;;;;;5086179;28;20472;-76
2023/09/13 12:21:00;;;;;;;5.20;4.70;;;21.00;1.00;;;;;;5082265;28;21900;-74
2023/09/13 12:23:28;;;;;;;5.10;4.70;;;20.90;1.00;;;;;;5084223;28;20449;-74
2023/09/13 12:25:57;;;;;;;5.17;4.70;;;20.90;1.00;;;;;;5084082;28;20857;-74
2023/09/13 12:28:29;;;;;;;5.20;4.30;;;20.90;1.00;;;;;;5083349;28;20620;-75
2023/09/13 12:30:56;;;;;;;5.83;5.33;;;20.90;1.00;;;;;;5085153;28;20478;-77
2023/09/13 12:33:24;;;;;;;7.47;6.87;;;21.00;1.00;;;;;;5081511;28;20561;-72
2023/09/13 12:35:54;;;;;;;4.70;4.30;;;21.10;1.00;;;;;;5082685;28;20502;-74
2023/09/13 12:38:23;;;;;;;6.80;6.30;;;21.10;1.00;;;;;;5082142;28;20524;-76
2023/09/13 12:40:54;;;;;;;5.37;4.97;;;21.20;1.00;;;;;;5083527;28;20467;-73
2023/09/13 12:43:22;;;;;;;4.30;4.00;;;21.30;1.00;;;;;;5084320;28;20588;-73
2023/09/13 12:45:50;;;;;;;5.00;4.53;;;21.20;1.00;;;;;;5081874;28;20504;-75
2023/09/13 12:48:19;;;;;;;5.03;4.70;;;21.10;1.00;;;;;;5082460;28;20462;-75
2023/09/13 12:50:47;;;;;;;4.93;4.63;;;21.10;1.00;;;;;;5086019;28;20532;-75
2023/09/13 12:53:15;;;;;;;4.43;3.87;;;21.10;1.00;;;;;;5086664;28;20439;-71
2023/09/13 12:55:43;;;;;;;6.00;5.50;;;21.10;1.00;;;;;;5082656;28;20468;-71